sensor_id;sensor_type;location;lat;lon;timestamp;temperature;humidity
44707;DHT22;30433;45.596;8.408;2024-02-16T00:02:23;6.90;99.90
44707;DHT22;30433;45.596;8.408;2024-02-16T00:08:25;6.90;99.90
44707;DHT22;30433;45.596;8.408;2024-02-16T00:14:27;6.90;99.90
44707;DHT22;30433;45.596;8.408;2024-02-16T00:20:31;6.60;99.90
44707;DHT22;30433;45.596;8.408;2024-02-16T00:26:33;6.10;99.90
44707;DHT22;30433;45.596;8.408;2024-02-16T00:32:35;6.30;99.90
44707;DHT22;30433;45.596;8.408;2024-02-16T00:38:39;6.60;99.90
44707;DHT22;30433;45.596;8.408;2024-02-16T00:44:41;6.40;99.90
44707;DHT22;30433;45.596;8.408;2024-02-16T00:50:43;6.20;99.90
44707;DHT22;30433;45.596;8.408;2024-02-16T00:56:47;6.50;99.90
44707;DHT22;30433;45.596;8.408;2024-02-16T01:02:49;6.50;99.90
44707;DHT22;30433;45.596;8.408;2024-02-16T01:08:51;6.40;99.90
44707;DHT22;30433;45.596;8.408;2024-02-16T01:14:55;6.70;99.90
44707;DHT22;30433;45.596;8.408;2024-02-16T01:20:56;6.50;99.90
44707;DHT22;30433;45.596;8.408;2024-02-16T01:26:59;6.30;99.90
44707;DHT22;30433;45.596;8.408;2024-02-16T01:33:04;6.50;99.90
44707;DHT22;30433;45.596;8.408;2024-02-16T01:39:06;6.30;99.90
44707;DHT22;30433;45.596;8.408;2024-02-16T01:45:09;6.30;99.90
44707;DHT22;30433;45.596;8.408;2024-02-16T01:51:14;6.30;99.90
44707;DHT22;30433;45.596;8.408;2024-02-16T01:57:16;6.30;99.90
44707;DHT22;30433;45.596;8.408;2024-02-16T02:03:18;6.30;99.90
44707;DHT22;30433;45.596;8.408;2024-02-16T02:09:22;6.30;99.90
44707;DHT22;30433;45.596;8.408;2024-02-16T02:15:23;6.40;99.90
44707;DHT22;30433;45.596;8.408;2024-02-16T02:21:25;6.30;99.90
44707;DHT22;30433;45.596;8.408;2024-02-16T02:27:29;6.20;99.90
44707;DHT22;30433;45.596;8.408;2024-02-16T02:33:31;6.10;99.90
44707;DHT22;30433;45.596;8.408;2024-02-16T02:39:33;6.20;99.90
44707;DHT22;30433;45.596;8.408;2024-02-16T02:45:37;6.20;99.90
44707;DHT22;30433;45.596;8.408;2024-02-16T02:51:40;5.80;99.90
44707;DHT22;30433;45.596;8.408;2024-02-16T02:57:42;5.90;99.90
44707;DHT22;30433;45.596;8.408;2024-02-16T03:03:46;6.10;99.90
44707;DHT22;30433;45.596;8.408;2024-02-16T03:09:48;6.10;99.90
44707;DHT22;30433;45.596;8.408;2024-02-16T03:15:50;5.90;99.90
44707;DHT22;30433;45.596;8.408;2024-02-16T03:21:54;5.90;99.90
44707;DHT22;30433;45.596;8.408;2024-02-16T03:27:57;6.20;99.90
44707;DHT22;30433;45.596;8.408;2024-02-16T03:33:59;5.90;99.90
44707;DHT22;30433;45.596;8.408;2024-02-16T03:40:06;5.90;99.90
44707;DHT22;30433;45.596;8.408;2024-02-16T03:46:09;6.10;99.90
44707;DHT22;30433;45.596;8.408;2024-02-16T03:52:11;6.10;99.90
44707;DHT22;30433;45.596;8.408;2024-02-16T03:58:16;6.10;99.90
44707;DHT22;30433;45.596;8.408;2024-02-16T04:04:18;6.20;99.90
44707;DHT22;30433;45.596;8.408;2024-02-16T04:10:21;6.20;99.90
44707;DHT22;30433;45.596;8.408;2024-02-16T04:16:25;6.20;99.90
44707;DHT22;30433;45.596;8.408;2024-02-16T04:22:27;6.10;99.90
44707;DHT22;30433;45.596;8.408;2024-02-16T04:28:29;6.10;99.90
44707;DHT22;30433;45.596;8.408;2024-02-16T04:34:32;6.20;99.90
44707;DHT22;30433;45.596;8.408;2024-02-16T04:40:35;6.40;99.90
44707;DHT22;30433;45.596;8.408;2024-02-16T04:46:38;6.40;99.90
44707;DHT22;30433;45.596;8.408;2024-02-16T04:52:42;6.40;99.90
44707;DHT22;30433;45.596;8.408;2024-02-16T04:58:44;6.40;99.90
44707;DHT22;30433;45.596;8.408;2024-02-16T05:04:46;6.40;99.90
44707;DHT22;30433;45.596;8.408;2024-02-16T05:10:50;6.30;99.90
44707;DHT22;30433;45.596;8.408;2024-02-16T05:16:52;6.50;99.90
44707;DHT22;30433;45.596;8.408;2024-02-16T05:22:55;6.30;99.90
44707;DHT22;30433;45.596;8.408;2024-02-16T05:28:59;6.20;99.90
44707;DHT22;30433;45.596;8.408;2024-02-16T05:35:01;6.20;99.90
44707;DHT22;30433;45.596;8.408;2024-02-16T05:41:05;6.20;99.90
44707;DHT22;30433;45.596;8.408;2024-02-16T05:47:09;6.10;99.90
44707;DHT22;30433;45.596;8.408;2024-02-16T05:53:11;6.10;99.90
44707;DHT22;30433;45.596;8.408;2024-02-16T05:59:13;6.00;99.90
44707;DHT22;30433;45.596;8.408;2024-02-16T06:05:17;6.00;99.90
44707;DHT22;30433;45.596;8.408;2024-02-16T06:11:20;5.70;99.90
44707;DHT22;30433;45.596;8.408;2024-02-16T06:17:22;5.90;99.90
44707;DHT22;30433;45.596;8.408;2024-02-16T06:23:26;5.90;99.90
44707;DHT22;30433;45.596;8.408;2024-02-16T06:29:28;5.90;99.90
44707;DHT22;30433;45.596;8.408;2024-02-16T06:35:31;5.90;99.90
44707;DHT22;30433;45.596;8.408;2024-02-16T06:41:34;6.10;99.90
44707;DHT22;30433;45.596;8.408;2024-02-16T06:47:36;5.90;99.90
44707;DHT22;30433;45.596;8.408;2024-02-16T06:53:38;5.90;99.90
44707;DHT22;30433;45.596;8.408;2024-02-16T06:59:42;6.00;99.90
44707;DHT22;30433;45.596;8.408;2024-02-16T07:05:43;6.00;99.90
44707;DHT22;30433;45.596;8.408;2024-02-16T07:11:46;6.10;99.90
44707;DHT22;30433;45.596;8.408;2024-02-16T07:17:52;6.00;99.90
44707;DHT22;30433;45.596;8.408;2024-02-16T07:23:54;6.10;99.90
44707;DHT22;30433;45.596;8.408;2024-02-16T07:29:56;6.10;99.90
44707;DHT22;30433;45.596;8.408;2024-02-16T07:36:00;6.30;99.90
44707;DHT22;30433;45.596;8.408;2024-02-16T07:42:01;6.20;99.90
44707;DHT22;30433;45.596;8.408;2024-02-16T07:48:05;6.30;99.90
44707;DHT22;30433;45.596;8.408;2024-02-16T07:54:09;6.50;99.90
44707;DHT22;30433;45.596;8.408;2024-02-16T08:00:11;6.70;99.90
44707;DHT22;30433;45.596;8.408;2024-02-16T08:06:16;6.90;99.90
44707;DHT22;30433;45.596;8.408;2024-02-16T08:12:22;7.00;99.90
44707;DHT22;30433;45.596;8.408;2024-02-16T08:18:26;7.20;99.90
44707;DHT22;30433;45.596;8.408;2024-02-16T08:24:28;7.30;99.90
44707;DHT22;30433;45.596;8.408;2024-02-16T08:30:31;7.70;99.90
44707;DHT22;30433;45.596;8.408;2024-02-16T08:36:34;8.00;99.90
44707;DHT22;30433;45.596;8.408;2024-02-16T08:42:36;8.20;99.90
44707;DHT22;30433;45.596;8.408;2024-02-16T08:48:39;8.40;99.90
44707;DHT22;30433;45.596;8.408;2024-02-16T08:54:42;8.70;99.90
44707;DHT22;30433;45.596;8.408;2024-02-16T09:00:46;8.80;99.90
44707;DHT22;30433;45.596;8.408;2024-02-16T09:06:50;8.90;99.90
44707;DHT22;30433;45.596;8.408;2024-02-16T09:12:54;8.90;99.90
44707;DHT22;30433;45.596;8.408;2024-02-16T09:18:58;9.00;99.90
44707;DHT22;30433;45.596;8.408;2024-02-16T09:25:02;9.10;99.90
44707;DHT22;30433;45.596;8.408;2024-02-16T09:31:04;9.40;99.90
44707;DHT22;30433;45.596;8.408;2024-02-16T09:37:06;9.70;99.90
44707;DHT22;30433;45.596;8.408;2024-02-16T09:43:10;10.20;99.90
44707;DHT22;30433;45.596;8.408;2024-02-16T09:49:12;10.50;99.90
44707;DHT22;30433;45.596;8.408;2024-02-16T09:55:15;10.70;99.90
44707;DHT22;30433;45.596;8.408;2024-02-16T10:01:19;10.60;99.80
44707;DHT22;30433;45.596;8.408;2024-02-16T10:07:31;10.70;99.90
44707;DHT22;30433;45.596;8.408;2024-02-16T10:13:33;11.10;99.90
44707;DHT22;30433;45.596;8.408;2024-02-16T10:19:37;11.00;99.90
44707;DHT22;30433;45.596;8.408;2024-02-16T10:25:41;11.20;99.90
44707;DHT22;30433;45.596;8.408;2024-02-16T10:31:44;11.30;98.50
44707;DHT22;30433;45.596;8.408;2024-02-16T10:37:48;11.70;99.00
44707;DHT22;30433;45.596;8.408;2024-02-16T10:43:51;11.90;99.20
44707;DHT22;30433;45.596;8.408;2024-02-16T10:49:53;11.70;99.50
44707;DHT22;30433;45.596;8.408;2024-02-16T10:55:59;11.80;98.60
44707;DHT22;30433;45.596;8.408;2024-02-16T11:02:02;11.80;99.70
44707;DHT22;30433;45.596;8.408;2024-02-16T11:08:05;11.80;99.90
44707;DHT22;30433;45.596;8.408;2024-02-16T11:14:16;11.70;99.90
44707;DHT22;30433;45.596;8.408;2024-02-16T11:20:18;11.90;99.40
44707;DHT22;30433;45.596;8.408;2024-02-16T11:26:23;11.90;99.90
44707;DHT22;30433;45.596;8.408;2024-02-16T11:32:26;12.00;99.00
44707;DHT22;30433;45.596;8.408;2024-02-16T11:38:31;12.00;99.40
44707;DHT22;30433;45.596;8.408;2024-02-16T11:44:35;12.10;99.00
44707;DHT22;30433;45.596;8.408;2024-02-16T11:50:38;12.10;99.90
44707;DHT22;30433;45.596;8.408;2024-02-16T11:56:41;12.10;99.80
44707;DHT22;30433;45.596;8.408;2024-02-16T12:02:45;12.20;99.90
44707;DHT22;30433;45.596;8.408;2024-02-16T12:08:50;12.40;99.90
44707;DHT22;30433;45.596;8.408;2024-02-16T12:14:53;12.60;99.90
44707;DHT22;30433;45.596;8.408;2024-02-16T12:20:59;12.70;99.90
44707;DHT22;30433;45.596;8.408;2024-02-16T12:27:03;12.80;99.20
44707;DHT22;30433;45.596;8.408;2024-02-16T12:33:06;12.60;99.50
44707;DHT22;30433;45.596;8.408;2024-02-16T12:39:08;12.80;99.80
44707;DHT22;30433;45.596;8.408;2024-02-16T12:45:14;12.80;99.90
44707;DHT22;30433;45.596;8.408;2024-02-16T12:51:16;13.00;99.90
44707;DHT22;30433;45.596;8.408;2024-02-16T12:57:19;12.90;99.00
44707;DHT22;30433;45.596;8.408;2024-02-16T13:03:22;12.90;99.90
44707;DHT22;30433;45.596;8.408;2024-02-16T13:09:24;12.90;99.50
44707;DHT22;30433;45.596;8.408;2024-02-16T13:15:26;12.90;99.20
44707;DHT22;30433;45.596;8.408;2024-02-16T13:21:30;12.90;99.90
44707;DHT22;30433;45.596;8.408;2024-02-16T13:27:32;12.90;99.80
44707;DHT22;30433;45.596;8.408;2024-02-16T13:33:34;13.20;99.30
44707;DHT22;30433;45.596;8.408;2024-02-16T13:39:38;13.30;99.40
44707;DHT22;30433;45.596;8.408;2024-02-16T13:45:50;13.50;99.90
44707;DHT22;30433;45.596;8.408;2024-02-16T13:51:53;13.80;99.50
44707;DHT22;30433;45.596;8.408;2024-02-16T13:58:00;13.60;98.90
44707;DHT22;30433;45.596;8.408;2024-02-16T14:04:04;13.30;99.90
44707;DHT22;30433;45.596;8.408;2024-02-16T14:10:07;13.60;99.90
44707;DHT22;30433;45.596;8.408;2024-02-16T14:16:11;13.50;99.90
44707;DHT22;30433;45.596;8.408;2024-02-16T14:22:13;13.30;99.90
44707;DHT22;30433;45.596;8.408;2024-02-16T14:28:15;13.20;99.90
44707;DHT22;30433;45.596;8.408;2024-02-16T14:34:19;13.10;99.90
44707;DHT22;30433;45.596;8.408;2024-02-16T14:40:21;13.10;99.90
44707;DHT22;30433;45.596;8.408;2024-02-16T14:46:25;13.10;99.90
44707;DHT22;30433;45.596;8.408;2024-02-16T14:52:29;13.00;99.90
44707;DHT22;30433;45.596;8.408;2024-02-16T14:58:31;13.00;99.90
44707;DHT22;30433;45.596;8.408;2024-02-16T15:04:34;12.90;99.90
44707;DHT22;30433;45.596;8.408;2024-02-16T15:10:39;13.00;99.90
44707;DHT22;30433;45.596;8.408;2024-02-16T15:16:43;12.90;99.90
44707;DHT22;30433;45.596;8.408;2024-02-16T15:22:45;12.80;99.90
44707;DHT22;30433;45.596;8.408;2024-02-16T15:28:49;12.80;99.90
44707;DHT22;30433;45.596;8.408;2024-02-16T15:34:51;12.70;99.90
44707;DHT22;30433;45.596;8.408;2024-02-16T15:40:54;12.70;99.90
44707;DHT22;30433;45.596;8.408;2024-02-16T15:46:58;12.70;99.90
44707;DHT22;30433;45.596;8.408;2024-02-16T15:53:00;12.50;99.90
44707;DHT22;30433;45.596;8.408;2024-02-16T15:59:02;12.50;99.90
44707;DHT22;30433;45.596;8.408;2024-02-16T16:05:06;12.40;99.90
44707;DHT22;30433;45.596;8.408;2024-02-16T16:11:09;12.40;99.90
44707;DHT22;30433;45.596;8.408;2024-02-16T16:17:11;12.20;99.90
44707;DHT22;30433;45.596;8.408;2024-02-16T16:23:16;12.10;99.90
44707;DHT22;30433;45.596;8.408;2024-02-16T16:29:19;12.00;99.90
44707;DHT22;30433;45.596;8.408;2024-02-16T16:35:21;11.80;99.90
44707;DHT22;30433;45.596;8.408;2024-02-16T16:41:25;11.80;99.90
44707;DHT22;30433;45.596;8.408;2024-02-16T16:47:27;11.60;99.90
44707;DHT22;30433;45.596;8.408;2024-02-16T16:53:29;11.40;99.90
44707;DHT22;30433;45.596;8.408;2024-02-16T16:59:33;11.50;99.90
44707;DHT22;30433;45.596;8.408;2024-02-16T17:05:35;11.40;99.90
44707;DHT22;30433;45.596;8.408;2024-02-16T17:11:37;11.20;99.90
44707;DHT22;30433;45.596;8.408;2024-02-16T17:17:41;11.10;99.90
44707;DHT22;30433;45.596;8.408;2024-02-16T17:23:48;11.00;99.90
44707;DHT22;30433;45.596;8.408;2024-02-16T17:29:51;10.60;99.90
44707;DHT22;30433;45.596;8.408;2024-02-16T17:35:54;10.60;99.90
44707;DHT22;30433;45.596;8.408;2024-02-16T17:41:56;10.70;99.90
44707;DHT22;30433;45.596;8.408;2024-02-16T17:47:59;10.50;99.90
44707;DHT22;30433;45.596;8.408;2024-02-16T17:54:02;10.50;99.90
44707;DHT22;30433;45.596;8.408;2024-02-16T18:00:06;10.50;99.90
44707;DHT22;30433;45.596;8.408;2024-02-16T18:06:08;10.40;99.90
44707;DHT22;30433;45.596;8.408;2024-02-16T18:12:12;10.20;99.90
44707;DHT22;30433;45.596;8.408;2024-02-16T18:18:15;10.20;99.90
44707;DHT22;30433;45.596;8.408;2024-02-16T18:24:18;9.90;99.90
44707;DHT22;30433;45.596;8.408;2024-02-16T18:30:22;10.10;99.90
44707;DHT22;30433;45.596;8.408;2024-02-16T18:36:24;9.90;99.90
44707;DHT22;30433;45.596;8.408;2024-02-16T18:42:26;9.80;99.90
44707;DHT22;30433;45.596;8.408;2024-02-16T18:48:30;9.90;99.90
44707;DHT22;30433;45.596;8.408;2024-02-16T18:54:32;9.60;99.90
44707;DHT22;30433;45.596;8.408;2024-02-16T19:00:34;9.40;99.90
44707;DHT22;30433;45.596;8.408;2024-02-16T19:06:38;9.60;99.90
44707;DHT22;30433;45.596;8.408;2024-02-16T19:12:40;9.50;99.90
44707;DHT22;30433;45.596;8.408;2024-02-16T19:18:42;9.50;99.90
44707;DHT22;30433;45.596;8.408;2024-02-16T19:24:45;9.80;99.90
44707;DHT22;30433;45.596;8.408;2024-02-16T19:30:48;9.70;99.90
44707;DHT22;30433;45.596;8.408;2024-02-16T19:36:50;9.70;99.90
44707;DHT22;30433;45.596;8.408;2024-02-16T19:42:53;9.20;99.90
44707;DHT22;30433;45.596;8.408;2024-02-16T19:48:56;9.00;99.90
44707;DHT22;30433;45.596;8.408;2024-02-16T19:54:58;9.00;99.90
44707;DHT22;30433;45.596;8.408;2024-02-16T20:01:03;9.10;99.90
44707;DHT22;30433;45.596;8.408;2024-02-16T20:07:05;8.90;99.90
44707;DHT22;30433;45.596;8.408;2024-02-16T20:13:07;9.20;99.90
44707;DHT22;30433;45.596;8.408;2024-02-16T20:19:11;9.00;99.90
44707;DHT22;30433;45.596;8.408;2024-02-16T20:25:13;9.00;99.90
44707;DHT22;30433;45.596;8.408;2024-02-16T20:31:16;8.60;99.90
44707;DHT22;30433;45.596;8.408;2024-02-16T20:37:20;8.20;99.90
44707;DHT22;30433;45.596;8.408;2024-02-16T20:43:22;8.30;99.90
44707;DHT22;30433;45.596;8.408;2024-02-16T20:49:24;8.50;99.90
44707;DHT22;30433;45.596;8.408;2024-02-16T20:55:28;8.80;99.90
44707;DHT22;30433;45.596;8.408;2024-02-16T21:01:30;8.40;99.90
44707;DHT22;30433;45.596;8.408;2024-02-16T21:07:33;8.30;99.90
44707;DHT22;30433;45.596;8.408;2024-02-16T21:13:37;7.80;99.90
44707;DHT22;30433;45.596;8.408;2024-02-16T21:19:39;7.70;99.90
44707;DHT22;30433;45.596;8.408;2024-02-16T21:25:41;7.80;99.90
44707;DHT22;30433;45.596;8.408;2024-02-16T21:31:45;8.20;99.90
44707;DHT22;30433;45.596;8.408;2024-02-16T21:37:47;8.20;99.90
44707;DHT22;30433;45.596;8.408;2024-02-16T21:43:50;7.90;99.90
44707;DHT22;30433;45.596;8.408;2024-02-16T21:49:54;7.80;99.90
44707;DHT22;30433;45.596;8.408;2024-02-16T21:55:56;7.70;99.90
44707;DHT22;30433;45.596;8.408;2024-02-16T22:01:58;7.30;99.90
44707;DHT22;30433;45.596;8.408;2024-02-16T22:08:02;7.30;99.90
44707;DHT22;30433;45.596;8.408;2024-02-16T22:14:05;7.50;99.90
44707;DHT22;30433;45.596;8.408;2024-02-16T22:20:08;7.30;99.90
44707;DHT22;30433;45.596;8.408;2024-02-16T22:26:11;7.70;99.90
44707;DHT22;30433;45.596;8.408;2024-02-16T22:32:13;7.40;99.90
44707;DHT22;30433;45.596;8.408;2024-02-16T22:38:15;6.70;99.90
44707;DHT22;30433;45.596;8.408;2024-02-16T22:44:19;6.80;99.90
44707;DHT22;30433;45.596;8.408;2024-02-16T22:50:21;6.70;99.90
44707;DHT22;30433;45.596;8.408;2024-02-16T22:56:23;7.10;99.90
44707;DHT22;30433;45.596;8.408;2024-02-16T23:02:27;7.10;99.90
44707;DHT22;30433;45.596;8.408;2024-02-16T23:08:29;6.90;99.90
44707;DHT22;30433;45.596;8.408;2024-02-16T23:14:33;6.80;99.90
44707;DHT22;30433;45.596;8.408;2024-02-16T23:20:37;6.40;99.90
44707;DHT22;30433;45.596;8.408;2024-02-16T23:26:39;6.70;99.90
44707;DHT22;30433;45.596;8.408;2024-02-16T23:32:41;7.00;99.90
44707;DHT22;30433;45.596;8.408;2024-02-16T23:38:44;6.90;99.90
44707;DHT22;30433;45.596;8.408;2024-02-16T23:44:46;7.00;99.90
44707;DHT22;30433;45.596;8.408;2024-02-16T23:50:48;7.00;99.90
44707;DHT22;30433;45.596;8.408;2024-02-16T23:56:52;7.00;99.90
